This is the latest recevied weather packets stored in our database for station/object KC0SIQ-13. If no packets are shown the sender has not sent any weather packets the latest 10 day(s).
| Time | Temp. | Humidity | Pressure | Rain* | Wind** | Luminosity | Snow |
|---|---|---|---|---|---|---|---|
| 1777944832 | 10.56° C | 86% | 1007.8 hPa | 0 mm | - | 3 W/m² | - |
| 1777944531 | 10.56° C | 86% | 1008.1 hPa | 0 mm | - | 3 W/m² | - |
| 1777944229 | 10.56° C | 87% | 1008.2 hPa | 0 mm | - | 3 W/m² | - |
| 1777943924 | 10.56° C | 87% | 1008 hPa | 0 mm | - | 4 W/m² | - |
| 1777943621 | 10.56° C | 86% | 1008.1 hPa | 0 mm | - | 6 W/m² | - |
| 1777943317 | 10.56° C | 85% | 1008 hPa | 0 mm | - | 6 W/m² | - |
| 1777943013 | 10.56° C | 84% | 1007.8 hPa | 0 mm | - | 5 W/m² | - |
| 1777942710 | 10.56° C | 82% | 1007.8 hPa | 0 mm | - | 8 W/m² | - |
| 1777942406 | 10.56° C | 82% | 1007.5 hPa | 0 mm | - | 7 W/m² | - |
| 1777942104 | 10.56° C | 81% | 1007.8 hPa | 0 mm | - | 8 W/m² | - |
| 1777941800 | 10.56° C | 80% | 1007.6 hPa | 0 mm | - | 10 W/m² | - |
| 1777941498 | 10.56° C | 79% | 1007.6 hPa | 0 mm | - | 12 W/m² | - |
| 1777941195 | 10.56° C | 79% | 1007.6 hPa | 0 mm | - | 15 W/m² | - |
| 1777940891 | 11.11° C | 79% | 1007.6 hPa | 0 mm | - | 13 W/m² | - |
| 1777940588 | 11.11° C | 78% | 1007.6 hPa | 1.78 mm | - | 9 W/m² | - |
| 1777940286 | 11.67° C | 76% | 1007.7 hPa | 3.05 mm | - | 7 W/m² | - |
| 1777939983 | 12.22° C | 70% | 1007.7 hPa | 0 mm | - | 4 W/m² | - |
| 1777939680 | 12.78° C | 65% | 1007.7 hPa | 1.78 mm | - | 5 W/m² | - |
| 1777939378 | 13.33° C | 61% | 1007.5 hPa | 3.05 mm | - | 5 W/m² | - |
| 1777939074 | 14.44° C | 56% | 1007.6 hPa | 1.27 mm | - | 4 W/m² | - |
| 1777938770 | 15° C | 49% | 1007.3 hPa | 0 mm | - | 5 W/m² | - |
| 1777938468 | 15° C | 50% | 1006.9 hPa | 0 mm | - | 5 W/m² | - |
| 1777938165 | 15.56° C | 48% | 1006.9 hPa | 0 mm | - | 6 W/m² | - |
| 1777937861 | 16.11° C | 44% | 1006.9 hPa | 0 mm | - | 6 W/m² | - |
| 1777937557 | 16.67° C | 42% | 1006.9 hPa | 0 mm | - | 8 W/m² | - |
* Rain latest hour (hover to see other rain measurements)
** Current wind speed in m/s (hover to see current wind gust speed)